createdAt,value
2018-11-14T00:00:13.180Z,6.05
2018-11-14T00:02:41.903Z,4.28
2018-11-14T00:05:10.585Z,4.17
2018-11-14T00:07:39.305Z,5.22
2018-11-14T00:10:21.781Z,2.72
2018-11-14T00:12:50.493Z,5.80
2018-11-14T00:15:20.487Z,3.42
2018-11-14T00:17:49.942Z,2.95
2018-11-14T00:20:18.705Z,2.10
2018-11-14T00:22:48.622Z,3.05
2018-11-14T00:25:17.332Z,2.47
2018-11-14T00:27:46.139Z,2.80
2018-11-14T00:30:20.566Z,3.47
2018-11-14T00:32:49.263Z,4.53
2018-11-14T00:35:18.011Z,2.60
2018-11-14T00:37:47.250Z,2.65
2018-11-14T00:40:16.862Z,2.67
2018-11-14T00:42:46.223Z,4.75
2018-11-14T00:45:16.369Z,13.40
2018-11-14T00:47:46.117Z,5.50
2018-11-14T00:50:15.740Z,6.53
2018-11-14T00:52:44.902Z,7.30
2018-11-14T00:55:15.101Z,5.55
2018-11-14T00:57:44.921Z,3.02
2018-11-14T01:00:15.813Z,1.62
2018-11-14T01:02:45.004Z,8.18
2018-11-14T01:05:14.367Z,1.87
2018-11-14T01:07:43.061Z,4.10
2018-11-14T01:10:13.515Z,2.58
2018-11-14T01:12:42.557Z,7.15
2018-11-14T01:15:13.719Z,1.75
2018-11-14T01:17:42.733Z,3.90
2018-11-14T01:20:14.413Z,2.90
2018-11-14T01:22:43.658Z,3.77
2018-11-14T01:25:13.421Z,3.58
2018-11-14T01:27:42.345Z,3.98
2018-11-14T01:30:13.752Z,3.08
2018-11-14T01:32:42.997Z,3.22
2018-11-14T01:35:11.693Z,5.60
2018-11-14T01:37:40.524Z,8.05
2018-11-14T01:40:13.353Z,6.22
2018-11-14T01:42:42.277Z,4.75
2018-11-14T01:45:11.334Z,4.00
2018-11-14T01:47:40.058Z,3.45
2018-11-14T01:50:09.737Z,3.05
2018-11-14T01:52:38.940Z,6.12
2018-11-14T01:55:09.297Z,3.33
2018-11-14T01:57:38.056Z,3.15
2018-11-14T02:00:09.869Z,3.20
2018-11-14T02:02:38.682Z,3.25
2018-11-14T02:05:07.991Z,2.37
2018-11-14T02:07:36.881Z,6.35
2018-11-14T02:10:07.707Z,1.72
2018-11-14T02:12:37.027Z,3.37
2018-11-14T02:15:07.203Z,4.00
2018-11-14T02:17:36.135Z,4.05
2018-11-14T02:20:06.201Z,1.70
2018-11-14T02:22:34.993Z,3.00
2018-11-14T02:25:03.683Z,4.47
2018-11-14T02:27:32.424Z,11.57
2018-11-14T02:30:01.123Z,1.80
2018-11-14T02:32:29.859Z,3.42
2018-11-14T02:34:58.614Z,2.33
2018-11-14T02:37:27.363Z,3.20
2018-11-14T02:39:56.100Z,3.80
2018-11-14T02:42:24.796Z,2.67
2018-11-14T02:44:54.067Z,2.10
2018-11-14T02:47:22.770Z,2.40
2018-11-14T02:49:51.596Z,3.85
2018-11-14T02:52:20.413Z,3.55
2018-11-14T02:54:49.130Z,2.10
2018-11-14T02:57:17.828Z,2.37
2018-11-14T02:59:46.606Z,2.22
2018-11-14T03:02:15.379Z,2.15
2018-11-14T03:04:44.108Z,3.10
2018-11-14T03:07:12.845Z,2.37
2018-11-14T03:09:41.599Z,2.10
2018-11-14T03:12:10.352Z,2.72
2018-11-14T03:14:39.261Z,2.05
2018-11-14T03:17:07.947Z,2.67
2018-11-14T03:19:36.765Z,6.55
2018-11-14T03:22:05.495Z,1.60
2018-11-14T03:24:34.283Z,2.50
2018-11-14T03:27:03.003Z,3.72
2018-11-14T03:29:31.775Z,3.37
2018-11-14T03:32:00.458Z,2.40
2018-11-14T03:34:29.230Z,3.42
2018-11-14T03:36:57.967Z,4.15
2018-11-14T03:39:26.689Z,2.40
2018-11-14T03:41:55.383Z,3.67
2018-11-14T03:44:24.073Z,2.40
2018-11-14T03:46:52.788Z,1.90
2018-11-14T03:49:21.575Z,2.58
2018-11-14T03:51:50.265Z,1.55
2018-11-14T03:54:19.002Z,1.90
2018-11-14T03:56:47.797Z,2.47
2018-11-14T03:59:16.468Z,2.45
2018-11-14T04:01:45.212Z,3.50
2018-11-14T04:04:13.962Z,1.90
2018-11-14T04:06:42.773Z,1.80
2018-11-14T04:09:12.806Z,1.98
2018-11-14T04:11:41.685Z,6.72
2018-11-14T04:14:10.713Z,3.85
2018-11-14T04:16:39.452Z,3.52
2018-11-14T04:19:08.423Z,2.77
2018-11-14T04:21:37.319Z,4.00
2018-11-14T04:24:06.151Z,3.45
2018-11-14T04:26:34.944Z,2.50
2018-11-14T04:29:03.675Z,5.03
2018-11-14T04:31:32.340Z,3.35
2018-11-14T04:34:01.036Z,2.25
2018-11-14T04:36:29.846Z,4.45
2018-11-14T04:38:58.605Z,3.83
2018-11-14T04:41:27.409Z,4.97
2018-11-14T04:43:56.091Z,3.02
2018-11-14T04:46:24.972Z,8.45
2018-11-14T04:48:53.769Z,3.33
2018-11-14T04:51:22.505Z,3.40
2018-11-14T04:53:51.246Z,1.50
2018-11-14T04:56:20.000Z,12.03
2018-11-14T04:58:48.685Z,3.58
2018-11-14T05:01:17.460Z,2.42
2018-11-14T05:03:46.190Z,2.72
2018-11-14T05:06:14.921Z,1.80
2018-11-14T05:08:43.641Z,2.00
2018-11-14T05:11:12.449Z,2.30
2018-11-14T05:13:41.129Z,3.83
2018-11-14T05:16:09.921Z,5.10
2018-11-14T05:18:38.710Z,1.92
2018-11-14T05:21:07.413Z,8.75
2018-11-14T05:23:36.271Z,4.40
2018-11-14T05:26:05.063Z,3.45
2018-11-14T05:28:33.787Z,4.35
2018-11-14T05:31:02.637Z,2.10
2018-11-14T05:33:31.375Z,7.17
2018-11-14T05:36:00.053Z,2.58
2018-11-14T05:38:28.773Z,2.50
2018-11-14T05:40:57.529Z,3.55
2018-11-14T05:43:26.259Z,2.85
2018-11-14T05:45:54.975Z,1.60
2018-11-14T05:48:23.676Z,4.25
2018-11-14T05:50:52.463Z,3.25
2018-11-14T05:53:21.415Z,3.12
2018-11-14T05:55:50.422Z,4.20
2018-11-14T05:58:19.142Z,4.78
2018-11-14T06:00:47.893Z,8.10
2018-11-14T06:03:16.573Z,3.62
2018-11-14T06:05:45.299Z,2.00
2018-11-14T06:08:14.051Z,2.80
2018-11-14T06:10:42.777Z,6.67
2018-11-14T06:13:11.569Z,2.70
2018-11-14T06:15:40.421Z,5.78
2018-11-14T06:18:09.093Z,2.60
2018-11-14T06:20:37.939Z,3.42
2018-11-14T06:23:06.683Z,9.43
2018-11-14T06:25:36.568Z,1.87
2018-11-14T06:28:06.444Z,2.62
2018-11-14T06:30:35.881Z,1.90
2018-11-14T06:33:06.062Z,2.40
2018-11-14T06:35:34.811Z,3.00
2018-11-14T06:38:03.528Z,2.42
2018-11-14T06:40:32.417Z,1.90
2018-11-14T06:43:01.400Z,3.02
2018-11-14T06:45:31.981Z,4.20
2018-11-14T06:48:01.489Z,3.37
2018-11-14T06:50:30.178Z,10.00
2018-11-14T06:53:03.187Z,1.80
2018-11-14T06:55:32.029Z,2.47
2018-11-14T06:58:00.867Z,3.12
2018-11-14T07:00:32.518Z,4.90
2018-11-14T07:03:02.330Z,6.45
2018-11-14T07:05:31.165Z,7.00
2018-11-14T07:07:59.757Z,4.25
2018-11-14T07:10:29.870Z,3.55
2018-11-14T07:13:05.349Z,7.08
2018-11-14T07:15:34.639Z,5.10
2018-11-14T07:18:03.406Z,6.72
2018-11-14T07:20:33.315Z,8.28
2018-11-14T07:23:02.066Z,3.77
2018-11-14T07:25:30.777Z,9.48
2018-11-14T07:27:59.515Z,2.72
2018-11-14T07:30:29.291Z,3.20
2018-11-14T07:32:59.511Z,3.00
2018-11-14T07:35:28.263Z,2.92
2018-11-14T07:38:36.236Z,5.12
2018-11-14T07:41:06.624Z,3.02
2018-11-14T07:43:36.304Z,3.15
2018-11-14T07:46:05.379Z,3.25
2018-11-14T07:48:34.419Z,3.35
2018-11-14T07:51:03.418Z,4.17
2018-11-14T07:53:32.637Z,4.55
2018-11-14T07:56:01.506Z,2.60
2018-11-14T07:58:30.618Z,6.37
2018-11-14T08:00:59.373Z,2.35
2018-11-14T08:03:28.221Z,2.67
2018-11-14T08:05:57.172Z,3.00
2018-11-14T08:08:25.962Z,3.55
2018-11-14T08:10:54.769Z,3.70
2018-11-14T08:13:24.741Z,2.87
2018-11-14T08:15:55.277Z,2.55
2018-11-14T08:18:24.351Z,4.42
2018-11-14T08:20:53.190Z,9.00
2018-11-14T08:23:21.955Z,2.30
2018-11-14T08:25:50.690Z,3.52
2018-11-14T08:28:19.378Z,2.67
2018-11-14T08:30:48.226Z,2.33
2018-11-14T08:33:16.953Z,2.37
2018-11-14T08:35:45.660Z,5.50
2018-11-14T08:38:14.472Z,2.52
2018-11-14T08:40:43.175Z,2.95
2018-11-14T08:43:11.884Z,5.28
2018-11-14T08:45:40.586Z,4.22
2018-11-14T08:48:09.816Z,2.77
2018-11-14T08:50:38.721Z,4.47
2018-11-14T08:53:08.519Z,3.00
2018-11-14T08:55:37.267Z,3.35
2018-11-14T08:58:06.075Z,4.87
2018-11-14T09:00:34.746Z,2.15
2018-11-14T09:03:03.633Z,3.65
2018-11-14T09:05:32.431Z,3.52
2018-11-14T09:08:01.206Z,3.30
2018-11-14T09:10:30.019Z,4.05
2018-11-14T09:12:58.925Z,4.80
2018-11-14T09:15:27.704Z,5.30
2018-11-14T09:17:56.456Z,2.45
2018-11-14T09:20:26.567Z,3.27
2018-11-14T09:22:55.380Z,3.98
2018-11-14T09:25:26.796Z,4.90
2018-11-14T09:27:55.712Z,3.92
2018-11-14T09:30:25.467Z,2.77
2018-11-14T09:32:54.286Z,6.03
2018-11-14T09:35:23.911Z,3.05
2018-11-14T09:37:53.367Z,4.10
2018-11-14T09:40:23.597Z,4.65
2018-11-14T09:42:52.416Z,3.65
2018-11-14T09:45:23.337Z,3.12
2018-11-14T09:47:52.069Z,3.25
2018-11-14T09:50:22.115Z,2.52
2018-11-14T09:52:54.155Z,7.30
2018-11-14T09:55:22.917Z,3.05
2018-11-14T09:57:51.655Z,4.12
2018-11-14T10:00:21.789Z,4.25
2018-11-14T10:02:52.133Z,2.92
2018-11-14T10:05:22.108Z,3.95
2018-11-14T10:07:50.854Z,2.87
2018-11-14T10:10:20.698Z,6.55
2018-11-14T10:12:50.337Z,1.87
2018-11-14T10:15:20.141Z,1.80
2018-11-14T10:17:49.322Z,2.00
2018-11-14T10:20:22.204Z,4.90
2018-11-14T10:22:51.135Z,4.70
2018-11-14T10:25:19.970Z,3.75
2018-11-14T10:27:49.340Z,1.90
2018-11-14T10:30:19.434Z,5.97
2018-11-14T10:32:48.860Z,14.50
2018-11-14T10:35:17.573Z,3.10
2018-11-14T10:37:46.312Z,2.67
2018-11-14T10:40:17.570Z,2.00
2018-11-14T10:42:46.488Z,2.92
2018-11-14T10:45:16.471Z,6.28
2018-11-14T10:47:45.195Z,3.15
2018-11-14T10:50:16.436Z,2.67
2018-11-14T10:52:45.192Z,1.90
2018-11-14T10:55:14.771Z,2.85
2018-11-14T10:57:43.596Z,2.67
2018-11-14T11:00:26.634Z,2.95
2018-11-14T11:03:01.168Z,5.83
2018-11-14T11:05:35.392Z,4.47
2018-11-14T11:08:10.102Z,2.70
2018-11-14T11:11:48.439Z,2.10
2018-11-14T11:14:22.551Z,2.80
2018-11-14T11:16:56.683Z,3.17
2018-11-14T11:19:26.910Z,3.70
2018-11-14T11:21:55.641Z,6.70
2018-11-14T11:24:24.570Z,3.92
2018-11-14T11:26:53.445Z,2.45
2018-11-14T11:29:22.144Z,2.65
2018-11-14T11:31:50.944Z,1.70
2018-11-14T11:34:19.602Z,3.15
2018-11-14T11:36:48.364Z,2.15
2018-11-14T11:39:18.345Z,3.15
2018-11-14T11:41:47.619Z,1.95
2018-11-14T11:44:16.331Z,1.80
2018-11-14T11:46:45.231Z,2.80
2018-11-14T11:49:13.978Z,2.45
2018-11-14T11:51:42.707Z,2.12
2018-11-14T11:54:11.453Z,2.50
2018-11-14T11:56:40.236Z,3.98
2018-11-14T11:59:09.268Z,4.33
2018-11-14T12:01:38.013Z,1.80
2018-11-14T12:04:06.864Z,3.42
2018-11-14T12:06:35.682Z,2.77
2018-11-14T12:09:06.708Z,3.20
2018-11-14T12:11:35.427Z,3.67
2018-11-14T12:14:04.861Z,2.70
2018-11-14T12:16:33.567Z,1.80
2018-11-14T12:19:02.367Z,2.72
2018-11-14T12:21:31.144Z,16.77
2018-11-14T12:23:59.797Z,2.35
2018-11-14T12:26:28.543Z,2.40
2018-11-14T12:28:57.299Z,3.98
2018-11-14T12:31:26.059Z,1.67
2018-11-14T12:33:54.838Z,2.67
2018-11-14T12:36:23.594Z,2.33
2018-11-14T12:38:53.447Z,1.45
2018-11-14T12:41:22.056Z,2.62
2018-11-14T12:43:50.769Z,1.85
2018-11-14T12:46:19.567Z,2.35
2018-11-14T12:48:48.360Z,1.90
2018-11-14T12:51:17.107Z,2.62
2018-11-14T12:53:45.841Z,2.10
2018-11-14T12:56:14.682Z,1.85
2018-11-14T12:58:43.374Z,3.05
2018-11-14T13:01:12.073Z,3.47
2018-11-14T13:03:40.844Z,6.90
2018-11-14T13:06:10.521Z,6.67
2018-11-14T13:08:39.250Z,3.00
2018-11-14T13:11:08.540Z,2.10
2018-11-14T13:13:42.746Z,5.20
2018-11-14T13:16:12.148Z,2.70
2018-11-14T13:18:41.579Z,2.77
2018-11-14T13:21:10.338Z,9.83
2018-11-14T13:23:39.148Z,4.80
2018-11-14T13:26:08.346Z,2.25
2018-11-14T13:28:37.534Z,2.22
2018-11-14T13:31:06.256Z,3.30
2018-11-14T13:33:35.035Z,4.40
2018-11-14T13:36:03.750Z,7.92
2018-11-14T13:38:32.912Z,2.33
2018-11-14T13:41:02.297Z,5.03
2018-11-14T13:43:30.998Z,7.62
2018-11-14T13:45:59.752Z,5.10
2018-11-14T13:48:28.933Z,3.00
2018-11-14T13:50:57.916Z,3.50
2018-11-14T13:53:26.509Z,3.27
2018-11-14T13:55:55.259Z,3.27
2018-11-14T13:58:24.101Z,2.80
2018-11-14T14:00:52.843Z,10.08
2018-11-14T14:03:21.579Z,4.20
2018-11-14T14:05:50.301Z,5.00
2018-11-14T14:08:19.000Z,5.33
2018-11-14T14:10:47.730Z,2.30
2018-11-14T14:13:16.573Z,2.12
2018-11-14T14:15:45.317Z,1.70
2018-11-14T14:18:14.067Z,4.30
2018-11-14T14:20:42.812Z,2.25
2018-11-14T14:23:11.542Z,2.70
2018-11-14T14:25:40.265Z,2.95
2018-11-14T14:28:09.055Z,4.97
2018-11-14T14:30:37.825Z,3.05
2018-11-14T14:33:06.592Z,3.75
2018-11-14T14:35:35.337Z,3.08
2018-11-14T14:38:04.279Z,2.80
2018-11-14T14:40:33.993Z,3.55
2018-11-14T14:43:02.712Z,1.50
2018-11-14T14:45:31.523Z,5.00
2018-11-14T14:48:00.286Z,4.90
2018-11-14T14:50:32.102Z,2.12
2018-11-14T14:53:01.044Z,2.02
2018-11-14T14:55:29.868Z,2.72
2018-11-14T14:57:58.608Z,2.45
2018-11-14T15:00:28.276Z,3.55
2018-11-14T15:02:57.271Z,3.15
2018-11-14T15:05:26.149Z,4.62
2018-11-14T15:07:55.067Z,5.53
2018-11-14T15:10:24.627Z,2.80
2018-11-14T15:12:53.420Z,2.90
2018-11-14T15:15:22.289Z,5.53
2018-11-14T15:17:51.005Z,2.25
2018-11-14T15:20:22.178Z,2.60
2018-11-14T15:22:51.337Z,3.47
2018-11-14T15:25:22.655Z,4.35
2018-11-14T15:27:53.302Z,11.28
2018-11-14T15:30:24.184Z,2.20
2018-11-14T15:32:53.526Z,5.50
2018-11-14T15:35:23.409Z,6.10
2018-11-14T15:37:52.480Z,2.92
2018-11-14T15:40:22.683Z,3.27
2018-11-14T15:42:52.063Z,1.75
2018-11-14T15:45:23.366Z,1.52
2018-11-14T15:47:55.144Z,3.20
2018-11-14T15:50:25.723Z,2.33
2018-11-14T15:52:55.365Z,2.70
2018-11-14T15:55:24.199Z,2.52
2018-11-14T15:57:53.204Z,2.40
2018-11-14T16:00:27.711Z,3.98
2018-11-14T16:02:57.274Z,6.30
2018-11-14T16:05:27.191Z,2.12
2018-11-14T16:07:56.987Z,3.67
2018-11-14T16:10:26.774Z,6.25
2018-11-14T16:12:55.606Z,3.90
2018-11-14T16:15:25.798Z,3.83
2018-11-14T16:17:54.508Z,4.47
2018-11-14T16:20:24.518Z,3.65
2018-11-14T16:22:53.312Z,1.55
2018-11-14T16:25:23.128Z,2.22
2018-11-14T16:27:53.205Z,3.70
2018-11-14T16:30:24.269Z,4.35
2018-11-14T16:32:54.354Z,2.10
2018-11-14T16:35:23.177Z,5.62
2018-11-14T16:37:52.007Z,2.75
2018-11-14T16:40:22.149Z,4.33
2018-11-14T16:42:51.615Z,3.62
2018-11-14T16:45:20.652Z,4.00
2018-11-14T16:47:49.631Z,2.00
2018-11-14T16:50:19.467Z,1.75
2018-11-14T16:52:48.493Z,3.50
2018-11-14T16:55:18.369Z,2.40
2018-11-14T16:57:47.901Z,7.17
2018-11-14T17:00:19.017Z,3.20
2018-11-14T17:02:47.838Z,2.05
2018-11-14T17:05:16.970Z,1.82
2018-11-14T17:07:46.003Z,2.45
2018-11-14T17:10:17.009Z,4.12
2018-11-14T17:12:46.676Z,4.83
2018-11-14T17:15:17.712Z,21.45
2018-11-14T17:17:46.562Z,38.17
2018-11-14T17:20:16.776Z,46.45
2018-11-14T17:22:46.083Z,71.90
2018-11-14T17:25:15.727Z,63.98
2018-11-14T17:27:45.003Z,45.73
2018-11-14T17:30:16.425Z,53.92
2018-11-14T17:32:45.324Z,58.02
2018-11-14T17:35:14.871Z,42.05
2018-11-14T17:37:44.443Z,51.80
2018-11-14T17:40:16.499Z,45.30
2018-11-14T17:42:46.231Z,59.85
2018-11-14T17:45:16.216Z,52.53
2018-11-14T17:47:46.608Z,43.52
2018-11-14T17:50:21.013Z,64.07
2018-11-14T17:52:50.720Z,42.75
2018-11-14T17:55:20.426Z,26.27
2018-11-14T17:57:50.240Z,47.10
2018-11-14T18:00:21.132Z,34.18
2018-11-14T18:02:49.958Z,38.80
2018-11-14T18:05:20.258Z,53.33
2018-11-14T18:07:50.246Z,22.82
2018-11-14T18:10:20.771Z,24.45
2018-11-14T18:12:50.479Z,34.08
2018-11-14T18:15:19.642Z,32.42
2018-11-14T18:17:49.287Z,37.17
2018-11-14T18:20:19.314Z,33.70
2018-11-14T18:22:48.624Z,35.48
2018-11-14T18:25:17.367Z,19.75
2018-11-14T18:27:46.151Z,24.35
2018-11-14T18:30:17.393Z,20.88
2018-11-14T18:32:46.090Z,28.47
2018-11-14T18:35:16.030Z,21.85
2018-11-14T18:37:45.454Z,30.75
2018-11-14T18:40:15.495Z,18.92
2018-11-14T18:42:44.398Z,22.17
2018-11-14T18:45:18.027Z,18.57
2018-11-14T18:47:47.200Z,27.02
2018-11-14T18:50:16.735Z,18.45
2018-11-14T18:52:46.208Z,24.00
2018-11-14T18:55:16.190Z,23.00
2018-11-14T18:57:45.631Z,16.37
2018-11-14T19:00:17.385Z,24.27
2018-11-14T19:02:46.250Z,15.32
2018-11-14T19:05:15.469Z,24.60
2018-11-14T19:07:44.417Z,13.55
2018-11-14T19:10:14.364Z,19.45
2018-11-14T19:12:43.687Z,10.68
2018-11-14T19:15:16.498Z,12.20
2018-11-14T19:17:45.250Z,9.30
2018-11-14T19:20:15.261Z,13.45
2018-11-14T19:22:44.196Z,7.40
2018-11-14T19:25:14.239Z,19.23
2018-11-14T19:27:43.874Z,13.58
2018-11-14T19:30:14.469Z,22.35
2018-11-14T19:32:44.589Z,23.57
2018-11-14T19:35:13.659Z,23.18
2018-11-14T19:37:43.585Z,25.05
2018-11-14T19:40:15.201Z,25.00
2018-11-14T19:42:44.659Z,22.42
2018-11-14T19:45:15.628Z,15.63
2018-11-14T19:47:44.436Z,12.30
2018-11-14T19:50:14.338Z,12.55
2018-11-14T19:52:43.397Z,12.50
2018-11-14T19:55:13.188Z,14.13
2018-11-14T19:57:42.838Z,17.42
2018-11-14T20:00:18.027Z,18.35
2018-11-14T20:02:46.865Z,9.90
2018-11-14T20:05:16.496Z,13.38
2018-11-14T20:07:45.463Z,11.63
2018-11-14T20:10:15.533Z,10.63
2018-11-14T20:12:44.500Z,9.23
2018-11-14T20:15:14.524Z,10.75
2018-11-14T20:17:44.177Z,9.43
2018-11-14T20:20:16.066Z,11.48
2018-11-14T20:22:45.076Z,14.87
2018-11-14T20:25:13.902Z,10.65
2018-11-14T20:27:43.036Z,7.72
2018-11-14T20:30:17.060Z,5.37
2018-11-14T20:32:45.791Z,7.53
2018-11-14T20:35:15.665Z,8.03
2018-11-14T20:37:45.199Z,8.05
2018-11-14T20:40:15.245Z,10.30
2018-11-14T20:42:44.482Z,9.50
2018-11-14T20:45:14.725Z,7.95
2018-11-14T20:47:43.663Z,9.18
2018-11-14T20:50:15.585Z,5.55
2018-11-14T20:52:45.081Z,9.23
2018-11-14T20:55:14.038Z,17.12
2018-11-14T20:57:43.385Z,6.97
2018-11-14T21:00:17.200Z,6.17
2018-11-14T21:02:45.926Z,6.83
2018-11-14T21:05:14.721Z,21.57
2018-11-14T21:07:43.926Z,11.38
2018-11-14T21:10:15.209Z,4.95
2018-11-14T21:12:44.575Z,14.93
2018-11-14T21:15:16.056Z,4.55
2018-11-14T21:17:45.295Z,4.92
2018-11-14T21:20:15.558Z,13.93
2018-11-14T21:22:44.426Z,4.37
2018-11-14T21:25:15.227Z,13.35
2018-11-14T21:27:45.091Z,6.72
2018-11-14T21:30:15.368Z,4.70
2018-11-14T21:32:44.352Z,6.33
2018-11-14T21:35:22.084Z,9.63
2018-11-14T21:37:52.076Z,11.25
2018-11-14T21:40:20.838Z,11.35
2018-11-14T21:42:49.571Z,7.17
2018-11-14T21:45:19.571Z,8.53
2018-11-14T21:47:53.683Z,6.50
2018-11-14T21:50:23.560Z,11.08
2018-11-14T21:52:52.342Z,5.87
2018-11-14T21:55:21.084Z,8.80
2018-11-14T21:57:49.973Z,10.68
2018-11-14T22:00:22.201Z,5.47
2018-11-14T22:02:52.408Z,6.83
2018-11-14T22:05:21.118Z,4.17
2018-11-14T22:07:49.940Z,6.62
2018-11-14T22:10:20.505Z,10.18
2018-11-14T22:12:49.715Z,6.72
2018-11-14T22:15:19.739Z,4.55
2018-11-14T22:17:48.622Z,4.28
2018-11-14T22:20:18.647Z,8.10
2018-11-14T22:22:47.991Z,5.80
2018-11-14T22:25:18.004Z,6.55
2018-11-14T22:27:46.898Z,5.65
2018-11-14T22:30:33.240Z,5.97
2018-11-14T22:33:02.082Z,4.55
2018-11-14T22:35:32.552Z,4.22
2018-11-14T22:38:01.361Z,4.55
2018-11-14T22:40:31.145Z,11.43
2018-11-14T22:42:59.896Z,13.98
2018-11-14T22:45:31.006Z,5.80
2018-11-14T22:47:59.726Z,5.70
2018-11-14T22:50:28.499Z,11.43
2018-11-14T22:52:57.237Z,3.95
2018-11-14T22:55:26.365Z,4.25
2018-11-14T22:57:55.379Z,7.20
2018-11-14T23:00:32.239Z,6.85
2018-11-14T23:03:02.253Z,8.23
2018-11-14T23:05:31.979Z,4.15
2018-11-14T23:08:01.131Z,3.47
2018-11-14T23:10:30.074Z,4.03
2018-11-14T23:12:58.862Z,4.20
2018-11-14T23:15:27.635Z,6.78
2018-11-14T23:17:56.592Z,7.75
2018-11-14T23:20:25.431Z,4.72
2018-11-14T23:22:54.697Z,5.45
2018-11-14T23:25:23.809Z,6.00
2018-11-14T23:27:53.601Z,3.95
2018-11-14T23:30:23.604Z,4.87
2018-11-14T23:32:53.188Z,7.33
2018-11-14T23:35:25.805Z,3.65
2018-11-14T23:37:55.785Z,6.50
2018-11-14T23:40:25.338Z,2.25
2018-11-14T23:42:54.057Z,3.08
2018-11-14T23:45:23.658Z,3.15
2018-11-14T23:47:52.595Z,4.83
2018-11-14T23:50:25.422Z,5.12
2018-11-14T23:52:55.168Z,6.85
2018-11-14T23:55:24.569Z,3.62
2018-11-14T23:57:53.293Z,2.12
